Time;durP1;ratioP1;P1;durP2;ratioP2;P2;SDS_P1;SDS_P2;PMS_P1;PMS_P2;Temp;Humidity;BMP_temperature;BMP_pressure;BME280_temperature;BME280_humidity;BME280_pressure;Samples;Min_cycle;Max_cycle;Signal;HPM_P1;HPM_P2
2022/03/03 00:02:09;;;;;;;2.53;1.83;;;18.20;41.10;;;;;;5074648;28;20169;-85
2022/03/03 00:04:35;;;;;;;3.50;2.25;;;18.20;41.00;;;;;;5074595;28;20186;-85
2022/03/03 00:07:02;;;;;;;3.97;1.95;;;18.20;41.90;;;;;;5058170;28;20165;-84
2022/03/03 00:09:28;;;;;;;2.83;2.25;;;18.20;41.10;;;;;;5058051;28;20210;-85
2022/03/03 00:11:53;;;;;;;2.50;2.20;;;18.30;41.30;;;;;;5057533;28;20240;-85
2022/03/03 00:14:19;;;;;;;2.75;2.03;;;18.20;41.20;;;;;;5075530;28;20247;-86
2022/03/03 00:16:45;;;;;;;2.83;2.30;;;18.20;41.50;;;;;;5057629;28;20165;-85
2022/03/03 00:19:11;;;;;;;4.15;2.50;;;18.20;41.40;;;;;;5075418;28;20236;-86
2022/03/03 00:21:36;;;;;;;4.53;2.30;;;18.20;41.40;;;;;;5057535;28;20215;-85
2022/03/03 00:24:02;;;;;;;3.95;2.30;;;18.20;41.40;;;;;;5074028;28;20228;-85
2022/03/03 00:26:28;;;;;;;2.40;2.00;;;18.20;41.40;;;;;;5057346;28;20230;-85
2022/03/03 00:28:53;;;;;;;3.88;2.40;;;18.20;41.40;;;;;;5074121;28;20153;-85
2022/03/03 00:31:19;;;;;;;3.20;2.30;;;18.10;41.40;;;;;;5073953;28;20569;-85
2022/03/03 00:33:45;;;;;;;2.47;2.10;;;18.10;41.50;;;;;;5073623;28;20220;-86
2022/03/03 00:36:11;;;;;;;3.40;2.17;;;18.10;41.40;;;;;;5074152;28;20616;-85
2022/03/03 00:38:36;;;;;;;2.78;2.20;;;18.20;41.60;;;;;;5074140;28;20149;-85
2022/03/03 00:41:03;;;;;;;3.70;2.20;;;18.10;41.50;;;;;;5075236;28;20173;-85
2022/03/03 00:43:28;;;;;;;2.70;2.10;;;18.20;41.50;;;;;;5074901;28;20192;-86
2022/03/03 00:45:54;;;;;;;2.75;2.25;;;18.20;41.50;;;;;;5074977;28;20535;-84
2022/03/03 00:48:20;;;;;;;3.03;2.30;;;18.20;41.60;;;;;;5057272;28;20195;-87
2022/03/03 00:50:46;;;;;;;2.72;2.15;;;18.20;41.60;;;;;;5073527;28;20168;-86
2022/03/03 00:53:11;;;;;;;3.47;2.40;;;18.10;41.60;;;;;;5073859;28;20154;-84
2022/03/03 00:55:37;;;;;;;2.50;2.22;;;18.10;41.60;;;;;;5073775;28;20158;-85
2022/03/03 00:58:03;;;;;;;2.55;2.08;;;18.10;41.70;;;;;;5073529;28;20171;-85
2022/03/03 01:00:29;;;;;;;3.20;2.45;;;18.10;41.70;;;;;;5057069;28;20234;-86
2022/03/03 01:02:54;;;;;;;3.80;2.20;;;18.10;41.70;;;;;;5056741;28;20153;-85
2022/03/03 01:05:20;;;;;;;2.47;2.08;;;18.00;41.70;;;;;;5056599;28;20217;-85
2022/03/03 01:07:47;;;;;;;3.08;2.05;;;18.10;41.80;;;;;;5073599;28;20173;-85
2022/03/03 01:10:15;;;;;;;2.78;2.00;;;18.10;41.80;;;;;;5039024;28;20181;-86
2022/03/03 01:12:45;;;;;;;2.67;1.85;;;18.10;41.70;;;;;;5039323;28;20205;-85
2022/03/03 01:15:13;;;;;;;2.85;2.15;;;18.10;41.80;;;;;;5056327;28;20185;-85
2022/03/03 01:17:40;;;;;;;2.47;2.03;;;18.10;41.70;;;;;;5022625;28;20546;-84
2022/03/03 01:20:09;;;;;;;3.13;2.17;;;18.10;42.10;;;;;;5056035;28;20182;-85
2022/03/03 01:22:36;;;;;;;2.40;2.00;;;18.10;41.90;;;;;;5055646;28;20189;-85
2022/03/03 01:25:05;;;;;;;2.40;2.03;;;18.10;41.90;;;;;;5039084;28;20213;-85
2022/03/03 01:27:33;;;;;;;3.30;2.45;;;18.00;42.10;;;;;;5039380;28;20217;-85
2022/03/03 01:30:01;;;;;;;3.78;2.47;;;18.00;42.00;;;;;;5022621;28;20552;-86
2022/03/03 01:32:27;;;;;;;3.10;2.47;;;18.00;42.20;;;;;;5022817;28;20676;-85
2022/03/03 01:34:54;;;;;;;3.28;2.10;;;18.00;42.10;;;;;;5072960;28;20176;-86
2022/03/03 01:37:21;;;;;;;3.55;1.90;;;18.00;42.10;;;;;;5038734;28;20189;-86
2022/03/03 01:39:49;;;;;;;2.15;1.95;;;18.00;42.00;;;;;;5022011;28;20629;-86
2022/03/03 01:42:17;;;;;;;4.57;2.45;;;18.00;42.10;;;;;;5022260;28;20184;-86
2022/03/03 01:44:45;;;;;;;3.17;2.22;;;18.00;42.10;;;;;;5055197;28;20691;-86
2022/03/03 01:47:28;;;;;;;3.15;2.30;;;18.00;42.10;;;;;;5038053;28;20181;-85
2022/03/03 01:49:56;;;;;;;2.67;2.00;;;18.00;42.80;;;;;;5055600;28;20189;-85
2022/03/03 01:52:24;;;;;;;3.03;2.45;;;18.00;41.90;;;;;;5055351;28;20173;-86
2022/03/03 01:54:50;;;;;;;4.40;2.33;;;18.00;42.20;;;;;;5022011;28;20633;-84
2022/03/03 01:57:18;;;;;;;2.60;1.77;;;18.00;42.40;;;;;;5073849;28;20283;-84
2022/03/03 01:59:45;;;;;;;2.33;2.03;;;18.00;42.10;;;;;;5056787;28;20185;-85
2022/03/03 02:02:12;;;;;;;3.28;2.28;;;18.00;42.30;;;;;;5042000;28;20173;-83
2022/03/03 02:04:40;;;;;;;3.60;2.58;;;18.10;42.50;;;;;;5041865;28;20205;-86
2022/03/03 02:07:07;;;;;;;3.90;2.40;;;18.00;42.50;;;;;;5058459;28;20184;-84
2022/03/03 02:09:35;;;;;;;3.58;2.17;;;18.00;42.50;;;;;;5041944;28;20189;-85
2022/03/03 02:12:02;;;;;;;3.67;2.80;;;18.00;42.40;;;;;;5038826;28;20680;-86
2022/03/03 02:14:28;;;;;;;2.60;2.10;;;17.90;42.80;;;;;;5038378;28;20284;-85
2022/03/03 02:16:55;;;;;;;2.42;2.22;;;18.00;42.30;;;;;;5038208;28;20212;-85
2022/03/03 02:19:21;;;;;;;3.15;2.15;;;18.00;42.50;;;;;;5073259;28;20161;-86
2022/03/03 02:21:48;;;;;;;2.70;1.95;;;18.00;42.50;;;;;;5055320;28;20149;-86
2022/03/03 02:24:14;;;;;;;2.80;2.10;;;18.00;42.50;;;;;;5071990;28;20201;-85
2022/03/03 02:26:41;;;;;;;3.15;2.20;;;17.90;42.60;;;;;;5055258;28;20195;-87
2022/03/03 02:29:07;;;;;;;2.88;2.00;;;18.00;42.50;;;;;;5055415;28;20161;-85
2022/03/03 02:31:33;;;;;;;3.17;2.30;;;18.00;42.50;;;;;;5055298;28;20588;-85
2022/03/03 02:34:00;;;;;;;2.80;1.85;;;17.90;42.40;;;;;;5071782;28;20687;-85
2022/03/03 02:36:28;;;;;;;3.90;2.10;;;18.00;43.20;;;;;;5054798;28;20189;-85
2022/03/03 02:38:56;;;;;;;2.20;1.90;;;18.00;42.60;;;;;;5055513;28;20157;-84
2022/03/03 02:41:22;;;;;;;4.00;2.25;;;17.90;42.60;;;;;;5038075;28;20181;-85
2022/03/03 02:43:48;;;;;;;3.40;2.40;;;17.90;42.70;;;;;;5072065;28;20196;-85
2022/03/03 02:46:13;;;;;;;3.10;2.10;;;17.90;42.70;;;;;;5055122;28;20517;-85
2022/03/03 02:48:41;;;;;;;3.15;2.00;;;18.00;42.60;;;;;;5038476;28;20165;-86
2022/03/03 02:51:07;;;;;;;2.65;1.98;;;17.90;42.60;;;;;;5021301;28;20267;-85
2022/03/03 02:53:33;;;;;;;2.75;2.10;;;17.90;42.70;;;;;;5071865;28;20557;-85
2022/03/03 02:56:01;;;;;;;3.47;2.08;;;18.00;42.80;;;;;;5054423;28;20726;-85
2022/03/03 02:58:28;;;;;;;2.80;2.10;;;17.90;42.70;;;;;;5055847;28;20177;-85
2022/03/03 03:00:56;;;;;;;3.45;2.05;;;17.90;42.70;;;;;;5025251;28;20230;-85
2022/03/03 03:03:23;;;;;;;3.38;2.10;;;18.00;42.70;;;;;;5058348;28;20753;-85
2022/03/03 03:05:48;;;;;;;3.45;2.17;;;17.90;42.80;;;;;;5041501;28;20213;-85
2022/03/03 03:08:16;;;;;;;4.57;2.20;;;17.90;42.70;;;;;;5075868;28;20255;-85
2022/03/03 03:10:43;;;;;;;2.67;2.17;;;17.90;42.90;;;;;;5058058;28;20644;-84
2022/03/03 03:13:12;;;;;;;3.88;2.30;;;17.90;42.90;;;;;;5024698;28;20211;-83
2022/03/03 03:15:39;;;;;;;2.47;1.98;;;17.80;42.90;;;;;;5042383;28;20276;-84
2022/03/03 03:18:10;;;;;;;3.15;2.40;;;17.90;42.60;;;;;;5041360;28;20177;-85
2022/03/03 03:20:39;;;;;;;3.15;1.92;;;17.90;42.80;;;;;;5041525;28;20185;-84
2022/03/03 03:23:06;;;;;;;2.53;1.98;;;17.90;42.80;;;;;;5025088;28;20177;-84
2022/03/03 03:25:32;;;;;;;3.78;2.10;;;17.90;42.90;;;;;;5024827;28;20644;-85
2022/03/03 03:27:57;;;;;;;2.63;2.10;;;17.90;42.80;;;;;;5058632;28;20161;-84
2022/03/03 03:30:23;;;;;;;3.83;2.20;;;17.80;42.70;;;;;;5075539;28;20187;-84
2022/03/03 03:32:49;;;;;;;2.92;2.10;;;17.90;42.90;;;;;;5086228;28;20257;-84
2022/03/03 03:35:15;;;;;;;2.85;1.90;;;17.80;43.00;;;;;;5096696;28;20161;-84
2022/03/03 03:37:41;;;;;;;3.05;1.95;;;17.90;43.00;;;;;;5078245;28;20172;-83
2022/03/03 03:40:08;;;;;;;2.90;1.95;;;17.80;43.00;;;;;;5078403;28;20202;-83
2022/03/03 03:42:34;;;;;;;2.95;1.85;;;17.90;42.90;;;;;;5061571;28;20246;-84
2022/03/03 03:45:00;;;;;;;2.28;2.08;;;17.90;42.70;;;;;;5078117;28;20665;-84
2022/03/03 03:47:25;;;;;;;2.42;1.70;;;17.90;43.00;;;;;;5078488;28;20161;-84
2022/03/03 03:49:51;;;;;;;3.75;2.20;;;17.90;42.80;;;;;;5061411;28;20218;-85
2022/03/03 03:52:17;;;;;;;3.15;2.20;;;17.90;43.10;;;;;;5077963;28;20161;-85
2022/03/03 03:54:43;;;;;;;2.65;1.95;;;17.90;43.00;;;;;;5061578;28;20177;-84
2022/03/03 03:57:09;;;;;;;2.17;1.90;;;17.90;43.10;;;;;;5096272;28;20160;-83
2022/03/03 03:59:35;;;;;;;4.82;2.30;;;17.80;43.00;;;;;;5077957;28;20160;-84
2022/03/03 04:02:01;;;;;;;2.63;2.00;;;17.80;42.90;;;;;;5078207;28;20603;-84
2022/03/03 04:04:26;;;;;;;3.25;2.10;;;17.80;43.00;;;;;;5095828;28;20539;-85
2022/03/03 04:06:52;;;;;;;2.92;2.05;;;17.90;43.00;;;;;;5077868;28;20184;-84
2022/03/03 04:09:18;;;;;;;2.42;2.05;;;17.80;43.10;;;;;;5077361;28;20630;-83
2022/03/03 04:11:44;;;;;;;2.40;2.00;;;17.80;43.00;;;;;;5095771;28;20229;-85
2022/03/03 04:14:13;;;;;;;2.42;2.10;;;17.80;43.10;;;;;;5077597;28;20169;-84
2022/03/03 04:16:39;;;;;;;2.70;1.95;;;17.80;43.00;;;;;;5043836;28;20704;-85
2022/03/03 04:19:05;;;;;;;2.25;1.83;;;17.80;43.20;;;;;;5095898;28;20153;-85
2022/03/03 04:21:31;;;;;;;3.13;1.80;;;17.90;43.10;;;;;;5077781;28;20164;-84
2022/03/03 04:23:58;;;;;;;2.47;1.98;;;17.80;43.20;;;;;;5077523;28;20180;-85
2022/03/03 04:26:25;;;;;;;3.53;1.92;;;17.80;43.20;;;;;;5077434;28;20173;-85
2022/03/03 04:28:51;;;;;;;2.38;1.98;;;17.90;43.10;;;;;;5077565;28;20164;-84
2022/03/03 04:31:17;;;;;;;2.10;1.90;;;17.80;43.00;;;;;;5077397;28;20619;-85
2022/03/03 04:33:43;;;;;;;4.30;2.20;;;17.80;43.10;;;;;;5060309;28;20231;-85
2022/03/03 04:36:09;;;;;;;2.22;2.00;;;17.90;43.30;;;;;;5060627;28;20645;-85
2022/03/03 04:38:35;;;;;;;2.90;2.13;;;17.80;43.30;;;;;;5077294;28;20164;-85
2022/03/03 04:41:00;;;;;;;2.53;1.90;;;17.80;43.10;;;;;;5077218;28;20183;-85
2022/03/03 04:43:26;;;;;;;2.63;2.25;;;17.80;43.20;;;;;;5060400;28;20673;-84
2022/03/03 04:45:52;;;;;;;2.50;1.92;;;17.80;43.20;;;;;;5060388;28;20531;-85
2022/03/03 04:48:19;;;;;;;2.88;2.15;;;17.80;43.00;;;;;;5077169;28;20216;-84
2022/03/03 04:50:45;;;;;;;3.05;2.17;;;17.80;43.30;;;;;;5042828;28;20173;-84
2022/03/03 04:53:12;;;;;;;2.58;2.00;;;17.90;43.00;;;;;;5095122;28;20239;-85
2022/03/03 04:55:39;;;;;;;2.88;2.00;;;17.80;43.30;;;;;;5095378;28;20521;-84
2022/03/03 04:58:04;;;;;;;2.65;1.80;;;17.70;43.30;;;;;;5076881;28;20163;-85
2022/03/03 05:00:31;;;;;;;2.40;1.90;;;17.80;43.30;;;;;;5077228;28;20175;-84
2022/03/03 05:02:57;;;;;;;2.50;1.92;;;17.80;43.30;;;;;;5060357;28;20165;-85
2022/03/03 05:05:23;;;;;;;2.97;1.88;;;17.80;43.30;;;;;;5059630;28;20196;-84
2022/03/03 05:07:51;;;;;;;2.38;1.85;;;17.80;43.40;;;;;;5043578;28;20171;-84
2022/03/03 05:10:18;;;;;;;5.53;1.90;;;17.80;43.40;;;;;;5042561;28;20176;-84
2022/03/03 05:12:45;;;;;;;3.33;2.00;;;17.70;43.40;;;;;;5059325;28;20192;-85
2022/03/03 05:15:13;;;;;;;2.63;1.92;;;17.70;43.40;;;;;;5026026;28;20185;-86
2022/03/03 05:17:40;;;;;;;2.50;1.85;;;17.80;43.30;;;;;;5042442;28;20251;-84
2022/03/03 05:20:08;;;;;;;2.17;1.83;;;17.80;43.40;;;;;;5042007;28;20179;-84
2022/03/03 05:22:35;;;;;;;3.17;2.20;;;17.80;43.40;;;;;;5058601;28;20192;-85
2022/03/03 05:25:05;;;;;;;3.97;1.92;;;17.80;43.00;;;;;;5042303;28;20257;-84
2022/03/03 05:27:33;;;;;;;2.47;1.90;;;17.80;43.00;;;;;;5026088;28;20180;-84
2022/03/03 05:30:04;;;;;;;1.98;1.77;;;17.80;42.70;;;;;;5059402;28;20184;-83
2022/03/03 05:32:30;;;;;;;1.92;1.70;;;17.90;42.20;;;;;;5038679;28;20220;-84
2022/03/03 05:34:58;;;;;;;3.22;1.90;;;18.00;42.10;;;;;;5056405;28;20657;-85
2022/03/03 05:37:24;;;;;;;3.28;2.25;;;18.00;42.40;;;;;;5074057;28;20192;-84
2022/03/03 05:39:53;;;;;;;2.20;1.65;;;18.00;42.10;;;;;;5072807;28;20605;-85
2022/03/03 05:42:24;;;;;;;3.03;2.03;;;18.00;42.00;;;;;;5039375;28;20189;-85
2022/03/03 05:44:52;;;;;;;2.20;1.73;;;18.10;42.10;;;;;;5023224;28;20212;-84
2022/03/03 05:47:20;;;;;;;3.00;1.80;;;18.10;41.70;;;;;;5038879;28;20177;-83
2022/03/03 05:49:50;;;;;;;1.77;1.58;;;18.10;41.70;;;;;;5055223;28;20648;-84
2022/03/03 05:52:16;;;;;;;2.42;1.65;;;18.20;41.50;;;;;;5056781;28;20158;-85
2022/03/03 05:54:42;;;;;;;1.95;1.52;;;18.20;41.60;;;;;;5056537;28;20169;-86
2022/03/03 05:57:17;;;;;;;2.00;1.50;;;18.20;41.40;;;;;;5057130;28;20185;-84
2022/03/03 05:59:43;;;;;;;2.30;1.55;;;18.20;41.30;;;;;;5074681;28;20149;-84
2022/03/03 06:02:11;;;;;;;2.00;1.67;;;18.20;41.10;;;;;;5044880;28;20189;-87
2022/03/03 06:04:48;;;;;;;1.70;1.40;;;18.20;41.00;;;;;;5045449;28;20189;-85
2022/03/03 06:07:18;;;;;;;1.65;1.52;;;18.20;41.10;;;;;;5051670;28;20184;-85
2022/03/03 06:09:44;;;;;;;1.67;1.35;;;18.20;41.10;;;;;;5051533;28;20154;-86
2022/03/03 06:12:19;;;;;;;1.90;1.40;;;18.30;40.70;;;;;;5018556;28;20169;-85
2022/03/03 06:14:49;;;;;;;1.80;1.30;;;18.20;40.90;;;;;;5035168;28;20667;-85
2022/03/03 06:17:15;;;;;;;1.98;1.40;;;18.20;40.70;;;;;;5018300;28;20166;-85
2022/03/03 06:19:42;;;;;;;1.55;1.40;;;18.30;40.70;;;;;;5035743;28;20160;-86
2022/03/03 06:22:09;;;;;;;2.05;1.48;;;18.30;40.90;;;;;;5018721;28;20162;-86
2022/03/03 06:24:35;;;;;;;1.83;1.40;;;18.30;40.30;;;;;;5052223;28;20213;-86
2022/03/03 06:27:01;;;;;;;2.22;1.48;;;18.30;40.30;;;;;;5034755;28;20185;-87
2022/03/03 06:29:27;;;;;;;1.70;1.40;;;18.30;40.30;;;;;;5034728;28;20162;-87
2022/03/03 06:31:53;;;;;;;2.70;1.50;;;18.30;40.10;;;;;;5017873;28;20245;-87
2022/03/03 06:34:20;;;;;;;2.15;1.33;;;18.40;40.30;;;;;;5018187;28;20596;-86
2022/03/03 06:36:46;;;;;;;1.73;1.30;;;18.40;39.90;;;;;;5019066;28;20158;-87
2022/03/03 06:39:16;;;;;;;1.92;1.38;;;18.40;39.70;;;;;;5017298;28;20200;-86
2022/03/03 06:41:45;;;;;;;1.38;1.25;;;18.40;40.00;;;;;;5033743;28;20264;-87
2022/03/03 06:44:14;;;;;;;2.03;1.50;;;18.40;40.00;;;;;;5015568;28;20301;-88
2022/03/03 06:46:44;;;;;;;1.38;1.20;;;18.50;39.80;;;;;;5000731;28;20174;-86
2022/03/03 06:49:12;;;;;;;1.65;1.30;;;18.50;39.70;;;;;;5017013;28;20189;-88
2022/03/03 06:51:42;;;;;;;1.58;1.17;;;18.50;39.70;;;;;;5017365;28;20247;-86
2022/03/03 06:54:14;;;;;;;1.60;1.33;;;18.40;39.60;;;;;;5001379;28;20177;-85
2022/03/03 06:56:51;;;;;;;1.42;1.10;;;18.50;39.60;;;;;;5017801;28;20178;-86
2022/03/03 06:59:18;;;;;;;1.33;1.20;;;18.50;39.50;;;;;;5001641;28;20189;-86
2022/03/03 07:01:49;;;;;;;1.70;1.40;;;18.50;39.70;;;;;;4986067;28;20178;-88
2022/03/03 07:04:18;;;;;;;2.78;1.45;;;18.50;39.60;;;;;;5030683;28;20204;-86
2022/03/03 07:06:44;;;;;;;1.58;1.20;;;18.50;39.60;;;;;;5038932;28;20185;-87
2022/03/03 07:09:12;;;;;;;1.50;1.40;;;18.50;39.70;;;;;;5039027;28;20154;-86
2022/03/03 07:11:40;;;;;;;1.45;1.27;;;18.50;39.70;;;;;;5037915;28;20213;-84
2022/03/03 07:14:08;;;;;;;1.63;1.30;;;18.50;39.70;;;;;;5038696;28;20220;-87
2022/03/03 07:16:45;;;;;;;1.55;1.20;;;18.60;39.70;;;;;;5038484;28;20181;-86
2022/03/03 07:19:34;;;;;;;2.72;1.48;;;18.50;39.50;;;;;;5022033;28;20710;-86
2022/03/03 07:22:18;;;;;;;1.70;1.30;;;18.60;39.50;;;;;;5041732;28;20212;-86
2022/03/03 07:24:47;;;;;;;1.13;1.02;;;18.60;39.50;;;;;;5039447;28;20232;-85
2022/03/03 07:27:22;;;;;;;1.40;1.15;;;18.60;39.40;;;;;;5043115;28;20185;-85
2022/03/03 07:29:59;;;;;;;1.05;0.95;;;18.50;39.40;;;;;;5044279;28;20697;-84
2022/03/03 07:32:36;;;;;;;1.77;1.42;;;18.60;39.40;;;;;;5029116;28;20217;-85
2022/03/03 07:35:09;;;;;;;1.40;1.25;;;18.50;39.40;;;;;;5039367;28;20609;-86
2022/03/03 07:37:50;;;;;;;1.17;1.08;;;18.50;39.30;;;;;;5023421;28;20222;-85
2022/03/03 07:40:17;;;;;;;3.00;1.30;;;18.50;39.30;;;;;;5038851;28;20237;-85
2022/03/03 07:42:46;;;;;;;1.25;1.15;;;18.60;39.00;;;;;;4990555;28;20186;-85
2022/03/03 07:45:13;;;;;;;1.25;1.15;;;18.60;38.80;;;;;;5008537;28;20271;-84
2022/03/03 07:47:44;;;;;;;1.55;1.13;;;18.70;38.80;;;;;;5043280;28;20613;-86
2022/03/03 07:50:19;;;;;;;1.50;1.00;;;18.70;38.70;;;;;;4992446;28;20177;-85
2022/03/03 07:52:51;;;;;;;1.83;1.30;;;18.70;38.90;;;;;;4993956;28;20207;-84
2022/03/03 07:55:20;;;;;;;1.20;1.10;;;18.80;38.90;;;;;;4954438;28;20195;-85
2022/03/03 07:58:10;;;;;;;1.20;1.10;;;18.80;38.70;;;;;;4968762;28;20183;-86
2022/03/03 08:00:43;;;;;;;1.27;1.15;;;18.80;38.50;;;;;;4968556;28;20323;-85
2022/03/03 08:03:18;;;;;;;1.10;1.00;;;18.80;38.50;;;;;;4955999;29;20585;-85
2022/03/03 08:05:48;;;;;;;1.63;1.30;;;18.80;38.30;;;;;;4983894;28;20301;-86
2022/03/03 08:08:22;;;;;;;1.88;1.23;;;18.80;38.30;;;;;;4965113;28;20192;-86
2022/03/03 08:10:50;;;;;;;1.20;1.10;;;18.80;38.30;;;;;;4982182;28;20185;-85
2022/03/03 08:13:36;;;;;;;2.33;1.27;;;18.90;38.20;;;;;;4980502;28;20185;-86
2022/03/03 08:16:08;;;;;;;1.40;1.20;;;18.90;38.20;;;;;;4981178;28;20234;-84
2022/03/03 08:18:39;;;;;;;1.20;1.10;;;18.90;38.10;;;;;;4947814;28;20200;-85
2022/03/03 08:21:09;;;;;;;1.30;1.17;;;18.90;37.90;;;;;;4980417;28;20212;-86
2022/03/03 08:23:40;;;;;;;1.33;1.17;;;18.90;37.90;;;;;;4964959;28;20224;-87
2022/03/03 08:26:12;;;;;;;2.33;1.10;;;18.90;37.90;;;;;;4965643;28;20210;-86
2022/03/03 08:28:41;;;;;;;1.40;1.17;;;18.90;38.00;;;;;;4972484;28;20186;-86
2022/03/03 08:31:22;;;;;;;0.95;0.80;;;18.90;38.00;;;;;;4982738;28;20209;-86
2022/03/03 08:33:53;;;;;;;2.20;1.17;;;18.90;38.10;;;;;;5047897;28;20707;-85
2022/03/03 08:36:29;;;;;;;2.20;1.10;;;18.90;38.20;;;;;;5080446;28;20153;-85
2022/03/03 08:38:58;;;;;;;4.07;1.02;;;18.80;38.00;;;;;;5029051;28;20205;-86
2022/03/03 08:41:29;;;;;;;1.17;1.08;;;18.90;37.90;;;;;;5046327;28;20191;-85
2022/03/03 08:43:56;;;;;;;1.52;1.15;;;18.90;37.80;;;;;;5047570;28;20213;-85
2022/03/03 08:46:27;;;;;;;1.63;1.05;;;18.90;37.70;;;;;;5067226;28;20203;-85
2022/03/03 08:48:55;;;;;;;0.90;0.85;;;19.00;37.60;;;;;;5050119;28;20186;-84
2022/03/03 08:51:23;;;;;;;1.77;1.20;;;19.00;37.50;;;;;;5033546;28;20174;-84
2022/03/03 08:53:53;;;;;;;1.33;1.20;;;19.00;37.50;;;;;;5064977;28;20231;-86
2022/03/03 08:56:22;;;;;;;1.17;0.90;;;19.00;37.50;;;;;;5064022;28;20639;-85
2022/03/03 08:58:53;;;;;;;3.65;1.20;;;19.00;37.60;;;;;;5047874;28;20337;-87
2022/03/03 09:01:31;;;;;;;1.67;1.15;;;19.00;37.70;;;;;;5066003;28;20181;-86
2022/03/03 09:03:58;;;;;;;7.00;1.35;;;19.00;37.70;;;;;;5028713;28;20201;-86
2022/03/03 09:06:28;;;;;;;2.72;1.05;;;19.00;37.50;;;;;;5065439;28;20165;-87
2022/03/03 09:09:01;;;;;;;1.30;0.95;;;19.10;37.50;;;;;;5066696;28;20623;-84
2022/03/03 09:11:28;;;;;;;1.60;1.08;;;19.10;37.40;;;;;;5049045;28;20177;-85
2022/03/03 09:13:55;;;;;;;2.42;1.10;;;19.00;37.30;;;;;;5067755;28;20193;-84
2022/03/03 09:16:22;;;;;;;0.98;0.90;;;19.10;37.50;;;;;;5050583;28;20181;-84
2022/03/03 09:18:49;;;;;;;2.40;1.13;;;19.00;37.60;;;;;;5034137;28;20184;-84
2022/03/03 09:21:23;;;;;;;1.58;0.85;;;19.00;37.70;;;;;;5067695;28;20173;-82
2022/03/03 09:24:06;;;;;;;;;;;;;;;;;;;;;
2022/03/03 09:26:36;;;;;;;1.58;1.00;;;19.00;37.80;;;;;;5041817;28;20379;-83
2022/03/03 09:29:07;;;;;;;1.35;1.02;;;19.10;37.80;;;;;;5080891;28;20161;-87
2022/03/03 09:31:40;;;;;;;1.75;1.17;;;19.10;37.60;;;;;;5045020;28;20268;-83
2022/03/03 09:34:12;;;;;;;2.25;1.17;;;19.20;37.70;;;;;;5044380;28;20216;-84
2022/03/03 09:36:41;;;;;;;1.67;1.35;;;19.10;37.60;;;;;;5027384;28;20184;-87
2022/03/03 09:39:15;;;;;;;2.92;0.93;;;19.20;37.50;;;;;;5081041;28;20146;-84
2022/03/03 09:41:41;;;;;;;2.33;1.23;;;19.20;37.40;;;;;;5065567;28;20224;-84
2022/03/03 09:44:13;;;;;;;1.80;0.98;;;19.20;37.50;;;;;;5065573;28;20197;-84
2022/03/03 09:47:11;;;;;;;;;;;;;;;;;;;;;
2022/03/03 09:50:42;;;;;;;;;;;;;;;;;;;;;
2022/03/03 09:52:32;;;;;;;2.17;0.98;;;19.30;37.00;;;;;;5069025;28;20213;-87
2022/03/03 09:55:01;;;;;;;2.63;1.10;;;19.30;37.70;;;;;;5062455;28;20154;-85
2022/03/03 09:57:28;;;;;;;1.25;1.05;;;19.30;37.00;;;;;;5026269;28;20544;-85
2022/03/03 09:59:57;;;;;;;1.58;0.93;;;19.30;37.00;;;;;;5040473;28;20667;-88
2022/03/03 10:02:26;;;;;;;1.50;0.90;;;19.40;36.80;;;;;;5057340;28;20206;-82
2022/03/03 10:04:56;;;;;;;3.92;1.10;;;19.40;36.80;;;;;;5043381;28;20220;-84
2022/03/03 10:07:24;;;;;;;3.90;1.10;;;19.40;37.00;;;;;;5040745;28;20180;-86
2022/03/03 10:10:14;;;;;;;6.32;1.20;;;19.30;36.90;;;;;;5041131;28;20536;-83
2022/03/03 10:12:43;;;;;;;4.75;1.35;;;19.20;37.10;;;;;;5048375;28;20186;-83
2022/03/03 10:15:13;;;;;;;3.78;1.27;;;19.30;36.90;;;;;;5040856;28;20738;-83
2022/03/03 10:17:40;;;;;;;3.70;1.02;;;19.30;37.30;;;;;;5025463;28;20268;-83
2022/03/03 10:20:07;;;;;;;3.38;1.08;;;19.20;37.30;;;;;;5057490;28;20162;-84
2022/03/03 10:22:42;;;;;;;1.77;1.00;;;19.20;37.40;;;;;;5056448;28;20619;-84
2022/03/03 10:25:12;;;;;;;3.53;1.13;;;19.20;37.50;;;;;;5074219;28;20193;-84
2022/03/03 10:27:38;;;;;;;1.70;0.93;;;19.20;37.60;;;;;;5023429;28;20284;-87
2022/03/03 10:30:07;;;;;;;1.63;1.00;;;19.20;37.30;;;;;;5056873;28;20165;-84
2022/03/03 10:32:35;;;;;;;2.22;1.08;;;19.20;37.10;;;;;;5079919;28;20208;-84
2022/03/03 10:35:18;;;;;;;1.67;0.85;;;19.30;37.20;;;;;;5060561;28;20535;-88
2022/03/03 10:37:44;;;;;;;2.42;0.98;;;19.30;37.10;;;;;;5059962;28;20169;-87
2022/03/03 10:40:12;;;;;;;1.83;1.02;;;19.30;36.80;;;;;;5076961;28;20198;-87
2022/03/03 10:42:38;;;;;;;1.80;0.80;;;19.30;36.70;;;;;;5075851;28;20164;-86
2022/03/03 10:45:06;;;;;;;2.95;1.17;;;19.30;36.50;;;;;;5076619;28;20601;-88
2022/03/03 10:47:32;;;;;;;3.42;1.00;;;19.30;37.20;;;;;;5076693;28;20153;-86
2022/03/03 10:49:59;;;;;;;1.17;0.60;;;19.20;37.10;;;;;;5059802;28;20167;-85
2022/03/03 10:52:27;;;;;;;3.67;1.00;;;19.30;37.00;;;;;;5077149;28;20243;-85
2022/03/03 10:55:03;;;;;;;1.52;0.90;;;19.30;37.40;;;;;;5077196;28;20180;-86
2022/03/03 10:57:33;;;;;;;1.95;0.95;;;19.20;36.80;;;;;;5044392;28;20188;-86
2022/03/03 11:00:01;;;;;;;4.80;1.08;;;19.20;37.50;;;;;;5095710;28;20145;-85
2022/03/03 11:02:28;;;;;;;3.28;1.00;;;19.30;37.00;;;;;;5061520;28;20168;-89
2022/03/03 11:04:55;;;;;;;3.47;1.13;;;19.30;37.20;;;;;;5078753;28;20228;-82
2022/03/03 11:07:21;;;;;;;2.15;0.75;;;19.30;37.00;;;;;;5077590;28;20153;-86
2022/03/03 11:09:48;;;;;;;4.60;1.00;;;19.30;36.80;;;;;;5077288;28;20149;-84
2022/03/03 11:12:21;;;;;;;3.08;0.73;;;19.40;36.90;;;;;;5077449;28;20149;-84
2022/03/03 11:14:47;;;;;;;2.50;1.00;;;19.40;36.90;;;;;;5060207;28;20169;-86
2022/03/03 11:17:43;;;;;;;;;;;;;;;;;;;;;
2022/03/03 11:20:18;;;;;;;5.45;1.10;;;19.30;37.00;;;;;;5079805;28;20268;-86
2022/03/03 11:22:50;;;;;;;4.03;1.60;;;19.30;36.80;;;;;;5033032;28;20181;-84
2022/03/03 11:25:19;;;;;;;3.67;0.98;;;19.30;37.20;;;;;;5050069;28;20212;-86
2022/03/03 11:28:00;;;;;;;3.65;1.40;;;19.30;37.00;;;;;;5082200;28;20208;-86
2022/03/03 11:30:28;;;;;;;1.98;0.82;;;19.30;36.70;;;;;;5081110;28;20153;-85
2022/03/03 11:33:41;;;;;;;;;;;;;;;;;;;;;
2022/03/03 11:36:20;;;;;;;2.95;0.90;;;19.30;36.70;;;;;;5077582;28;20185;-86
2022/03/03 11:39:20;;;;;;;5.07;0.90;;;19.30;36.50;;;;;;5060865;28;20161;-86
2022/03/03 11:41:58;;;;;;;5.55;1.10;;;19.30;36.40;;;;;;5077683;28;20781;-86
2022/03/03 11:44:35;;;;;;;1.88;0.85;;;19.30;36.80;;;;;;5044614;28;20229;-84
2022/03/03 11:47:17;;;;;;;4.15;1.10;;;19.30;36.30;;;;;;5077968;28;20576;-86
2022/03/03 11:50:12;;;;;;;2.17;0.70;;;19.30;36.60;;;;;;5064116;28;20179;-84
2022/03/03 11:52:38;;;;;;;2.28;0.80;;;19.40;36.50;;;;;;5048022;28;20181;-84
2022/03/03 11:55:24;;;;;;;3.67;1.08;;;19.30;36.00;;;;;;5042674;28;20204;-87
2022/03/03 11:57:53;;;;;;;4.85;0.98;;;19.30;36.40;;;;;;5058696;28;20523;-88
2022/03/03 12:00:23;;;;;;;3.40;0.85;;;19.30;36.20;;;;;;5043446;28;20660;-85
2022/03/03 12:03:00;;;;;;;1.70;0.70;;;19.30;36.50;;;;;;5024482;28;20209;-87
2022/03/03 12:05:30;;;;;;;5.18;0.85;;;19.30;36.40;;;;;;5058537;28;20215;-84
2022/03/03 12:08:01;;;;;;;4.28;1.10;;;19.30;36.40;;;;;;5058987;28;20156;-85
2022/03/03 12:10:30;;;;;;;1.15;0.60;;;19.30;36.70;;;;;;5025447;28;20180;-85
2022/03/03 12:13:28;;;;;;;1.00;0.70;;;19.30;36.80;;;;;;5024624;28;20725;-85
2022/03/03 12:16:25;;;;;;;1.48;0.70;;;19.30;36.20;;;;;;5075624;28;20177;-87
2022/03/03 12:19:12;;;;;;;2.00;0.70;;;19.30;36.30;;;;;;5041180;28;20189;-87
2022/03/03 12:21:46;;;;;;;1.35;0.77;;;19.30;36.40;;;;;;5059260;28;20172;-84
2022/03/03 12:24:31;;;;;;;2.03;0.98;;;19.30;36.70;;;;;;5042114;28;20220;-85
2022/03/03 12:27:01;;;;;;;3.42;0.90;;;19.30;36.20;;;;;;5043749;28;20271;-84
2022/03/03 12:29:49;;;;;;;2.22;0.80;;;19.30;36.40;;;;;;5024837;28;20276;-83
2022/03/03 12:32:32;;;;;;;2.65;0.90;;;19.40;36.50;;;;;;5049114;28;20288;-84
2022/03/03 12:35:03;;;;;;;1.83;0.90;;;19.30;36.30;;;;;;5066872;28;20623;-85
2022/03/03 12:37:32;;;;;;;2.30;0.93;;;19.30;36.40;;;;;;5033582;28;20184;-85
2022/03/03 12:40:01;;;;;;;2.33;0.80;;;19.30;36.60;;;;;;5035219;28;20318;-86
2022/03/03 12:42:33;;;;;;;0.65;0.60;;;19.40;36.70;;;;;;5016079;28;20177;-84
2022/03/03 12:45:07;;;;;;;2.35;0.95;;;19.30;36.60;;;;;;5032294;28;20261;-85
2022/03/03 12:47:41;;;;;;;2.78;0.90;;;19.30;36.70;;;;;;5033852;28;20212;-84
2022/03/03 12:50:16;;;;;;;2.38;1.00;;;19.30;36.50;;;;;;5016949;28;20191;-84
2022/03/03 12:52:59;;;;;;;1.38;0.80;;;19.40;36.50;;;;;;5018212;28;20176;-84
2022/03/03 12:55:31;;;;;;;1.60;0.70;;;19.20;36.40;;;;;;5102517;28;20165;-85
2022/03/03 12:58:01;;;;;;;3.63;1.02;;;19.30;36.40;;;;;;5066595;28;20255;-87
2022/03/03 13:00:31;;;;;;;1.45;0.80;;;19.30;36.60;;;;;;5048651;28;20229;-84
2022/03/03 13:02:59;;;;;;;1.98;1.00;;;19.30;36.50;;;;;;5083412;28;20176;-85
2022/03/03 13:05:38;;;;;;;2.83;0.60;;;19.30;36.50;;;;;;5082132;28;20238;-85
2022/03/03 13:08:06;;;;;;;2.10;0.77;;;19.30;36.40;;;;;;5065457;28;20169;-84